Time;durP1;ratioP1;P1;durP2;ratioP2;P2;SDS_P1;SDS_P2;PMS_P1;PMS_P2;Temp;Humidity;BMP_temperature;BMP_pressure;BME280_temperature;BME280_humidity;BME280_pressure;Samples;Min_cycle;Max_cycle;Signal;HPM_P1;HPM_P2
2022/11/04 00:01:16;;;;;;;1.53;1.40;;;10.30;99.90;;;;;;4979630;28;20478;-70
2022/11/04 00:03:41;;;;;;;2.27;2.07;;;10.20;99.90;;;;;;4976710;28;20446;-71
2022/11/04 00:06:08;;;;;;;1.90;1.67;;;10.20;99.90;;;;;;4983251;28;20176;-70
2022/11/04 00:08:34;;;;;;;1.90;1.60;;;10.20;99.90;;;;;;4986471;28;20180;-70
2022/11/04 00:13:45;;;;;;;1.73;1.63;;;10.20;99.90;;;;;;4979157;28;20563;-70
2022/11/04 00:18:55;;;;;;;1.73;1.40;;;10.20;99.90;;;;;;4982647;28;20449;-71
2022/11/04 00:29:33;;;;;;;2.80;1.63;;;10.30;99.90;;;;;;4977706;28;20477;-70
2022/11/04 00:34:48;;;;;;;1.27;1.17;;;10.40;99.90;;;;;;4980938;28;20203;-71
2022/11/04 00:37:13;;;;;;;1.67;1.43;;;10.40;99.90;;;;;;4973633;28;20435;-70
2022/11/04 00:39:39;;;;;;;1.80;1.70;;;10.40;99.90;;;;;;4972709;28;20535;-72
2022/11/04 00:42:04;;;;;;;1.53;1.43;;;10.40;99.90;;;;;;4982852;28;20215;-70
2022/11/04 00:44:30;;;;;;;1.67;1.57;;;10.50;99.90;;;;;;4974346;28;20184;-73
2022/11/04 00:46:55;;;;;;;1.57;1.47;;;10.40;99.90;;;;;;4972568;28;20643;-71
2022/11/04 00:49:21;;;;;;;2.60;1.60;;;10.40;99.90;;;;;;4984387;28;20203;-70
2022/11/04 00:51:46;;;;;;;2.97;1.37;;;10.40;99.90;;;;;;4979665;28;20200;-72
2022/11/04 00:54:12;;;;;;;1.50;1.37;;;10.40;99.90;;;;;;4987724;28;20205;-71
2022/11/04 00:56:38;;;;;;;1.80;1.70;;;10.40;99.90;;;;;;4979783;28;20180;-70
2022/11/04 00:59:05;;;;;;;1.63;1.53;;;10.40;99.90;;;;;;4983683;28;20212;-70
2022/11/04 01:01:31;;;;;;;1.80;1.70;;;10.40;99.90;;;;;;4986451;28;20492;-69
2022/11/04 01:03:57;;;;;;;2.23;1.90;;;10.40;99.90;;;;;;4978770;28;20534;-72
2022/11/04 01:06:24;;;;;;;2.93;2.07;;;10.40;99.90;;;;;;4987242;28;20677;-72
2022/11/04 01:09:02;;;;;;;1.70;1.60;;;10.40;99.90;;;;;;4981785;28;20184;-71
2022/11/04 01:11:29;;;;;;;3.10;1.50;;;10.40;99.90;;;;;;4980973;28;20529;-71
2022/11/04 01:13:55;;;;;;;1.93;1.83;;;10.40;99.90;;;;;;4985194;28;20494;-71
2022/11/04 01:16:21;;;;;;;1.63;1.53;;;10.40;99.90;;;;;;4987514;28;20953;-72
2022/11/04 01:18:46;;;;;;;2.03;1.77;;;10.30;99.90;;;;;;4978923;28;20183;-71
2022/11/04 01:21:14;;;;;;;2.03;1.43;;;10.30;99.90;;;;;;4979381;28;20463;-72
2022/11/04 01:23:40;;;;;;;1.57;1.43;;;10.40;99.90;;;;;;4973904;28;20180;-71
2022/11/04 01:26:18;;;;;;;1.50;1.40;;;10.40;99.90;;;;;;4972647;28;21020;-71
2022/11/04 01:28:44;;;;;;;1.57;1.47;;;10.40;99.90;;;;;;4972376;28;20471;-73
2022/11/04 01:31:13;;;;;;;2.20;1.27;;;10.40;99.90;;;;;;4972925;28;20448;-71
2022/11/04 01:33:39;;;;;;;2.57;1.90;;;10.40;99.90;;;;;;4972754;28;20446;-71
2022/11/04 01:36:06;;;;;;;2.30;1.60;;;10.30;99.90;;;;;;4973343;28;20933;-71
2022/11/04 01:38:32;;;;;;;2.90;2.03;;;10.40;99.90;;;;;;4972272;28;20209;-71
2022/11/04 01:40:58;;;;;;;1.70;1.53;;;10.30;99.90;;;;;;4973481;28;20475;-74
2022/11/04 01:43:53;;;;;;;1.93;1.70;;;10.30;99.90;;;;;;4978026;28;20851;-71
2022/11/04 01:46:31;;;;;;;2.13;1.67;;;10.30;99.90;;;;;;4976243;28;20936;-70
2022/11/04 01:49:03;;;;;;;1.90;1.80;;;10.30;99.90;;;;;;4974017;28;20929;-72
2022/11/04 01:51:32;;;;;;;2.00;1.60;;;10.30;99.90;;;;;;4973764;28;20463;-71
2022/11/04 01:53:57;;;;;;;2.20;1.83;;;10.30;99.90;;;;;;4980517;28;20442;-76
2022/11/04 01:56:25;;;;;;;1.73;1.63;;;10.40;99.90;;;;;;4976684;28;20959;-73
2022/11/04 01:58:55;;;;;;;1.70;1.40;;;10.40;99.90;;;;;;4985148;28;20183;-73
2022/11/04 02:01:20;;;;;;;2.50;1.50;;;10.30;99.90;;;;;;4980415;28;20459;-72
2022/11/04 02:04:24;;;;;;;1.50;1.20;;;10.30;99.90;;;;;;4978895;28;20467;-72
2022/11/04 02:06:45;;;;;;;2.50;1.53;;;10.30;99.90;;;;;;4969628;28;20188;-72
2022/11/04 02:09:11;;;;;;;1.30;1.10;;;10.30;99.90;;;;;;4982110;28;20434;-72
2022/11/04 02:14:21;;;;;;;1.37;1.10;;;10.20;99.90;;;;;;4985106;28;20503;-72
2022/11/04 02:16:48;;;;;;;1.60;1.50;;;10.20;99.90;;;;;;4978747;28;20446;-72
2022/11/04 02:19:22;;;;;;;1.90;1.70;;;10.20;99.90;;;;;;4979785;28;20539;-72
2022/11/04 02:22:24;;;;;;;1.27;1.10;;;10.20;99.90;;;;;;4980309;28;20466;-72
2022/11/04 02:25:15;;;;;;;1.47;1.00;;;10.20;99.90;;;;;;4968776;28;20788;-72
2022/11/04 02:28:15;;;;;;;1.40;1.30;;;10.20;99.90;;;;;;4972769;28;20775;-71
2022/11/04 02:31:10;;;;;;;1.20;1.00;;;10.10;99.90;;;;;;4967170;28;20451;-72
2022/11/04 02:34:11;;;;;;;1.20;1.10;;;10.10;99.90;;;;;;4970076;28;20465;-71
2022/11/04 02:36:48;;;;;;;1.10;1.03;;;10.00;99.90;;;;;;4971328;28;20821;-72
2022/11/04 02:39:41;;;;;;;0.93;0.90;;;10.00;99.90;;;;;;4970466;28;20451;-72
2022/11/04 02:42:24;;;;;;;1.00;0.80;;;9.90;99.90;;;;;;4969165;28;21043;-71
2022/11/04 02:45:14;;;;;;;0.90;0.87;;;9.90;99.90;;;;;;4972640;28;20439;-72
2022/11/04 02:47:44;;;;;;;1.27;1.10;;;9.90;99.90;;;;;;4969274;28;20534;-71
2022/11/04 02:50:19;;;;;;;1.13;1.03;;;9.90;99.90;;;;;;4970975;28;20522;-72
2022/11/04 02:52:54;;;;;;;1.30;1.20;;;9.90;99.90;;;;;;4971086;28;20463;-72
2022/11/04 02:55:30;;;;;;;0.70;0.70;;;9.90;99.90;;;;;;4972165;28;20442;-74
2022/11/04 02:57:59;;;;;;;0.80;0.80;;;9.90;99.90;;;;;;4971383;28;20440;-73
2022/11/04 03:00:25;;;;;;;0.70;0.70;;;9.90;99.90;;;;;;4965441;28;20467;-72
2022/11/04 03:02:56;;;;;;;0.60;0.60;;;9.90;99.90;;;;;;4971452;28;20470;-73
2022/11/04 03:05:27;;;;;;;2.60;0.90;;;9.90;99.90;;;;;;4972317;28;20470;-72
2022/11/04 03:07:56;;;;;;;3.43;0.97;;;9.90;99.90;;;;;;4969376;28;21159;-72
2022/11/04 03:10:29;;;;;;;1.00;0.90;;;9.80;99.90;;;;;;4971134;28;20505;-71
2022/11/04 03:13:08;;;;;;;2.70;0.73;;;9.80;99.90;;;;;;4971250;28;20471;-73
2022/11/04 03:15:38;;;;;;;1.73;1.10;;;9.80;99.90;;;;;;4969507;28;20515;-74
2022/11/04 03:18:21;;;;;;;1.90;1.10;;;9.70;99.90;;;;;;4976045;28;20999;-71
2022/11/04 03:20:48;;;;;;;1.93;1.00;;;9.70;99.90;;;;;;4971776;28;20506;-72
2022/11/04 03:23:14;;;;;;;1.07;0.97;;;9.70;99.90;;;;;;4979226;28;20464;-71
2022/11/04 03:25:44;;;;;;;1.90;0.93;;;9.60;99.90;;;;;;4971980;28;20440;-72
2022/11/04 03:28:13;;;;;;;1.30;1.20;;;9.60;99.90;;;;;;4975800;28;20439;-72
2022/11/04 03:30:46;;;;;;;2.23;1.53;;;9.70;99.90;;;;;;4971862;28;20462;-71
2022/11/04 03:33:42;;;;;;;2.10;1.10;;;9.70;99.90;;;;;;4974845;28;20845;-72
2022/11/04 03:36:09;;;;;;;3.70;1.40;;;9.70;99.90;;;;;;4969998;28;21149;-72
2022/11/04 03:38:36;;;;;;;1.23;1.10;;;9.70;99.90;;;;;;4969769;28;20539;-72
2022/11/04 03:41:07;;;;;;;1.50;1.40;;;9.70;99.90;;;;;;4971367;28;20203;-71
2022/11/04 03:43:36;;;;;;;1.60;1.10;;;9.60;99.90;;;;;;4969960;28;20474;-72
2022/11/04 03:46:01;;;;;;;1.23;1.13;;;9.60;99.90;;;;;;4971023;28;20435;-72
2022/11/04 03:48:28;;;;;;;1.20;1.10;;;9.60;99.90;;;;;;4969544;28;20922;-72
2022/11/04 03:50:53;;;;;;;1.47;0.80;;;9.60;99.90;;;;;;4972438;28;20439;-72
2022/11/04 03:53:22;;;;;;;1.33;0.90;;;9.60;99.90;;;;;;4983213;28;20461;-71
2022/11/04 03:55:57;;;;;;;1.20;1.10;;;9.50;99.90;;;;;;4968544;28;20198;-72
2022/11/04 03:59:03;;;;;;;4.00;1.20;;;9.60;99.90;;;;;;4969558;28;22057;-72
2022/11/04 04:01:37;;;;;;;1.07;0.90;;;9.50;99.90;;;;;;4966846;28;20490;-72
2022/11/04 04:04:21;;;;;;;1.03;0.90;;;9.50;99.90;;;;;;4970585;28;21258;-72
2022/11/04 04:06:52;;;;;;;2.50;1.20;;;9.50;99.90;;;;;;4966659;28;20434;-72
2022/11/04 04:09:23;;;;;;;2.47;1.03;;;9.50;99.90;;;;;;4970086;28;20431;-72
2022/11/04 04:12:00;;;;;;;2.27;1.20;;;9.40;99.90;;;;;;4971089;28;20465;-73
2022/11/04 04:14:43;;;;;;;1.47;0.93;;;9.40;99.90;;;;;;4968802;28;20462;-72
2022/11/04 04:17:28;;;;;;;1.83;1.20;;;9.40;99.90;;;;;;4970298;28;20459;-72
2022/11/04 04:20:00;;;;;;;2.43;1.23;;;9.40;99.90;;;;;;4969186;28;20786;-71
2022/11/04 04:22:33;;;;;;;1.13;1.03;;;9.40;99.90;;;;;;4966625;28;20462;-73
2022/11/04 04:27:50;;;;;;;3.70;1.17;;;9.40;99.90;;;;;;4965923;28;20916;-73
2022/11/04 04:30:16;;;;;;;1.57;1.47;;;9.40;99.90;;;;;;4970085;28;20431;-72
2022/11/04 04:32:51;;;;;;;1.73;1.23;;;9.40;99.90;;;;;;4970399;28;20454;-72
2022/11/04 04:35:42;;;;;;;1.10;1.00;;;9.40;99.90;;;;;;4968923;28;20533;-74
2022/11/04 04:47:06;;;;;;;1.17;1.07;;;9.10;99.90;;;;;;4969822;28;20807;-72
2022/11/04 04:49:33;;;;;;;1.40;1.23;;;9.10;99.90;;;;;;4969394;28;20435;-72
2022/11/04 04:52:01;;;;;;;1.40;0.90;;;9.10;99.90;;;;;;4972454;28;20465;-72
2022/11/04 04:54:27;;;;;;;2.43;1.30;;;9.10;99.90;;;;;;4972433;28;20917;-72
2022/11/04 04:56:52;;;;;;;1.60;1.50;;;9.10;99.90;;;;;;4971287;28;20519;-71
2022/11/04 04:59:18;;;;;;;1.70;1.60;;;9.10;99.90;;;;;;4973816;28;20219;-73
2022/11/04 05:01:44;;;;;;;2.67;1.00;;;9.20;99.90;;;;;;4974066;28;20234;-71
2022/11/04 05:04:09;;;;;;;2.27;1.80;;;9.10;99.90;;;;;;4974131;28;20568;-71
2022/11/04 05:06:35;;;;;;;1.43;1.27;;;9.00;99.90;;;;;;4967119;28;20184;-72
2022/11/04 05:09:00;;;;;;;1.63;1.20;;;9.00;99.90;;;;;;4971342;28;20176;-70
2022/11/04 05:11:26;;;;;;;4.60;1.50;;;9.00;99.90;;;;;;4974362;28;20175;-71
2022/11/04 05:13:51;;;;;;;1.57;0.80;;;8.90;99.90;;;;;;4973276;28;20642;-72
2022/11/04 05:16:17;;;;;;;2.83;1.10;;;8.90;99.90;;;;;;4972059;28;20188;-71
2022/11/04 05:18:42;;;;;;;2.67;1.20;;;8.90;99.90;;;;;;4969811;28;20580;-71
2022/11/04 05:21:12;;;;;;;1.70;1.50;;;8.90;99.90;;;;;;4974240;28;20196;-73
2022/11/04 05:23:38;;;;;;;2.13;1.70;;;8.90;99.90;;;;;;4977052;28;20180;-71
2022/11/04 05:26:03;;;;;;;2.23;1.20;;;8.90;99.90;;;;;;4971897;28;20514;-71
2022/11/04 05:28:29;;;;;;;1.47;1.37;;;8.90;99.90;;;;;;4970579;28;20185;-71
2022/11/04 05:30:55;;;;;;;2.13;1.20;;;8.90;99.90;;;;;;4973095;28;20272;-73
2022/11/04 05:33:20;;;;;;;2.23;1.33;;;9.00;99.90;;;;;;4973894;28;20889;-71
2022/11/04 05:35:46;;;;;;;1.43;1.00;;;8.90;99.90;;;;;;4972758;28;20242;-75
2022/11/04 05:38:11;;;;;;;4.90;3.40;;;8.90;99.90;;;;;;4972414;28;20196;-72
2022/11/04 05:40:37;;;;;;;1.97;1.20;;;8.80;99.90;;;;;;4971779;28;20212;-71
2022/11/04 05:43:03;;;;;;;1.80;1.23;;;8.80;99.90;;;;;;4971694;28;20585;-71
2022/11/04 05:45:29;;;;;;;4.80;2.30;;;8.80;99.90;;;;;;4973020;28;20260;-71
2022/11/04 05:47:59;;;;;;;3.60;1.53;;;8.80;99.90;;;;;;4971214;28;20677;-72
2022/11/04 05:50:25;;;;;;;3.63;1.43;;;8.80;99.90;;;;;;4966414;28;20270;-71
2022/11/04 05:52:50;;;;;;;1.27;1.17;;;8.80;99.90;;;;;;4971677;28;20459;-72
2022/11/04 05:55:16;;;;;;;2.83;2.30;;;8.70;99.90;;;;;;4973451;28;20180;-71
2022/11/04 05:57:41;;;;;;;1.80;1.50;;;8.70;99.90;;;;;;4971540;28;20184;-71
2022/11/04 06:00:08;;;;;;;2.00;1.40;;;8.80;99.90;;;;;;4970497;28;20251;-71
2022/11/04 06:02:34;;;;;;;1.47;1.37;;;8.70;99.90;;;;;;4964369;28;20204;-71
2022/11/04 06:04:59;;;;;;;1.47;1.37;;;8.80;99.90;;;;;;4970860;28;20439;-75
2022/11/04 06:07:25;;;;;;;1.87;1.03;;;8.80;99.90;;;;;;4970940;28;20234;-71
2022/11/04 06:09:50;;;;;;;1.73;1.63;;;8.70;99.90;;;;;;4971237;28;20681;-71
2022/11/04 06:12:16;;;;;;;6.00;3.90;;;8.70;99.90;;;;;;4972738;28;20204;-72
2022/11/04 06:14:43;;;;;;;3.80;2.83;;;8.60;99.90;;;;;;4973466;28;20183;-71
2022/11/04 06:17:15;;;;;;;5.57;2.27;;;8.60;99.90;;;;;;4970859;28;20192;-71
2022/11/04 06:19:40;;;;;;;5.27;2.67;;;8.60;99.90;;;;;;4972041;28;20461;-71
2022/11/04 06:22:06;;;;;;;2.57;2.37;;;8.60;99.90;;;;;;4981563;28;20478;-71
2022/11/04 06:24:31;;;;;;;6.30;2.53;;;8.60;99.90;;;;;;4982165;28;20180;-72
2022/11/04 06:26:57;;;;;;;2.50;1.87;;;8.60;99.90;;;;;;4980505;28;20548;-71
2022/11/04 06:29:22;;;;;;;2.03;1.80;;;8.60;99.90;;;;;;4976995;28;20184;-71
2022/11/04 06:31:48;;;;;;;1.77;1.67;;;8.70;99.90;;;;;;4986093;28;20203;-73
2022/11/04 06:34:13;;;;;;;2.40;1.67;;;8.60;99.90;;;;;;4981755;28;20183;-71
2022/11/04 06:36:39;;;;;;;1.40;1.30;;;8.60;99.90;;;;;;4984945;28;20222;-71
2022/11/04 06:39:04;;;;;;;2.10;1.77;;;8.50;99.90;;;;;;4977780;28;20270;-73
2022/11/04 06:41:30;;;;;;;1.43;1.30;;;8.50;99.90;;;;;;4986565;28;20282;-71
2022/11/04 06:43:56;;;;;;;2.03;1.47;;;8.50;99.90;;;;;;4976770;28;20211;-71
2022/11/04 06:46:37;;;;;;;5.90;1.70;;;8.40;99.90;;;;;;4989427;28;20462;-71
2022/11/04 06:49:05;;;;;;;3.80;1.67;;;8.40;99.90;;;;;;4981433;28;20663;-73
2022/11/04 06:51:31;;;;;;;4.47;2.10;;;8.40;99.90;;;;;;4984258;28;20458;-71
2022/11/04 06:53:56;;;;;;;2.47;2.27;;;8.40;99.90;;;;;;4972727;28;20522;-71
2022/11/04 06:56:22;;;;;;;2.00;1.90;;;8.40;99.90;;;;;;4969583;28;20527;-72
2022/11/04 06:58:49;;;;;;;2.50;1.93;;;8.40;99.90;;;;;;4969691;28;20187;-71
2022/11/04 07:01:15;;;;;;;4.20;1.73;;;8.40;99.90;;;;;;4977177;28;20203;-72
2022/11/04 07:03:41;;;;;;;2.80;2.10;;;8.40;99.90;;;;;;4983285;28;20784;-71
2022/11/04 07:06:07;;;;;;;2.50;1.90;;;8.40;99.90;;;;;;4970695;28;20446;-73
2022/11/04 07:08:33;;;;;;;5.13;2.33;;;8.40;99.90;;;;;;4975508;28;20175;-75
2022/11/04 07:10:59;;;;;;;2.17;1.97;;;8.50;99.90;;;;;;4981122;28;20863;-71
2022/11/04 07:13:24;;;;;;;2.17;2.07;;;8.50;99.90;;;;;;4978856;28;20246;-70
2022/11/04 07:15:50;;;;;;;4.60;3.17;;;8.60;99.90;;;;;;4978046;28;20637;-70
2022/11/04 07:18:15;;;;;;;3.60;2.60;;;8.70;99.90;;;;;;4975704;28;20179;-76
2022/11/04 07:20:41;;;;;;;3.10;2.77;;;8.70;99.90;;;;;;4944173;28;20299;-73
2022/11/04 07:23:07;;;;;;;5.30;2.60;;;8.70;99.90;;;;;;4958958;28;20627;-71
2022/11/04 07:25:33;;;;;;;7.93;2.47;;;8.80;99.90;;;;;;4969422;28;20526;-72
2022/11/04 07:27:59;;;;;;;4.80;2.50;;;8.80;99.90;;;;;;4969717;28;20436;-74
2022/11/04 07:30:25;;;;;;;5.33;2.70;;;8.90;99.90;;;;;;4969081;28;20182;-72
2022/11/04 07:32:51;;;;;;;6.23;3.30;;;9.00;99.90;;;;;;4964720;28;20459;-70
2022/11/04 07:35:17;;;;;;;5.30;2.73;;;9.00;99.90;;;;;;4971841;28;20451;-71
2022/11/04 07:37:43;;;;;;;2.87;2.37;;;9.00;99.90;;;;;;4969580;28;20466;-71
2022/11/04 07:40:09;;;;;;;4.93;3.43;;;9.00;99.90;;;;;;4967079;28;20180;-70
2022/11/04 07:42:35;;;;;;;4.27;3.80;;;9.10;99.90;;;;;;4970415;28;20213;-70
2022/11/04 07:45:00;;;;;;;3.03;2.83;;;9.10;99.90;;;;;;4979171;28;20428;-71
2022/11/04 07:47:29;;;;;;;10.33;8.00;;;9.10;99.90;;;;;;4975206;28;20180;-71
2022/11/04 07:49:54;;;;;;;7.73;4.40;;;9.10;99.90;;;;;;4984620;28;20530;-71
2022/11/04 07:52:20;;;;;;;9.00;3.17;;;9.10;99.90;;;;;;4972062;28;20473;-68
2022/11/04 07:54:45;;;;;;;5.27;2.70;;;9.10;99.90;;;;;;4980481;28;20177;-69
2022/11/04 07:57:11;;;;;;;2.87;2.20;;;9.20;99.90;;;;;;4970891;28;20187;-69
2022/11/04 07:59:37;;;;;;;2.53;2.30;;;9.30;99.90;;;;;;4968687;28;20176;-70
2022/11/04 08:02:02;;;;;;;3.90;2.87;;;9.40;99.90;;;;;;4989384;28;20286;-69
2022/11/04 08:04:28;;;;;;;3.87;3.57;;;9.50;99.90;;;;;;4979143;28;20552;-70
2022/11/04 08:06:53;;;;;;;3.40;2.57;;;9.50;99.90;;;;;;4964943;28;20275;-70
2022/11/04 08:09:19;;;;;;;4.07;2.73;;;9.60;99.90;;;;;;4951447;28;20173;-70
2022/11/04 08:11:45;;;;;;;4.23;2.73;;;9.60;99.90;;;;;;4971831;28;20219;-70
2022/11/04 08:14:10;;;;;;;2.20;1.90;;;9.60;99.90;;;;;;4972664;28;20180;-71
2022/11/04 08:16:36;;;;;;;1.87;1.77;;;9.60;99.90;;;;;;4972683;28;20176;-70
2022/11/04 08:19:02;;;;;;;1.80;1.70;;;9.70;99.90;;;;;;4972074;28;20176;-69
2022/11/04 08:21:29;;;;;;;2.20;2.00;;;9.70;99.90;;;;;;4972632;28;20570;-70
2022/11/04 08:23:55;;;;;;;1.90;1.50;;;9.60;99.90;;;;;;4972794;28;20549;-70
2022/11/04 08:26:22;;;;;;;2.57;1.53;;;9.70;99.90;;;;;;4971879;28;20513;-70
2022/11/04 08:28:50;;;;;;;3.80;1.93;;;9.70;99.90;;;;;;4975710;28;20172;-71
2022/11/04 08:31:23;;;;;;;3.87;1.60;;;9.70;99.90;;;;;;4959114;28;20424;-71
2022/11/04 08:33:49;;;;;;;1.50;1.40;;;9.80;99.90;;;;;;4956870;29;20483;-71
2022/11/04 08:36:27;;;;;;;3.27;2.13;;;10.00;99.90;;;;;;4966659;28;20941;-70
2022/11/04 08:38:53;;;;;;;4.13;1.80;;;10.10;99.90;;;;;;4976162;28;20411;-71
2022/11/04 08:41:22;;;;;;;1.60;1.47;;;10.20;99.90;;;;;;4976096;28;20498;-69
2022/11/04 08:43:48;;;;;;;2.60;1.50;;;10.20;99.90;;;;;;4968717;28;20510;-71
2022/11/04 08:46:14;;;;;;;2.43;2.23;;;10.30;99.90;;;;;;4976377;28;20506;-71
2022/11/04 08:48:41;;;;;;;5.20;2.20;;;10.60;99.90;;;;;;4975677;28;20634;-71
2022/11/04 08:51:13;;;;;;;3.37;1.20;;;10.90;99.90;;;;;;4975747;28;20934;-70
2022/11/04 08:53:38;;;;;;;2.87;1.60;;;11.00;99.90;;;;;;4976076;28;20443;-70
2022/11/04 08:56:22;;;;;;;2.93;2.57;;;11.10;99.90;;;;;;4965376;28;20926;-72
2022/11/04 08:58:48;;;;;;;1.70;1.10;;;11.20;99.90;;;;;;4972666;28;20307;-70
2022/11/04 09:01:15;;;;;;;2.10;1.40;;;11.00;99.90;;;;;;4975838;28;20455;-70
2022/11/04 09:03:41;;;;;;;1.50;1.40;;;10.70;99.90;;;;;;4966186;28;20435;-71
2022/11/04 09:06:10;;;;;;;1.60;1.50;;;10.60;99.90;;;;;;4976017;28;20939;-71
2022/11/04 09:08:38;;;;;;;3.43;1.83;;;10.50;99.90;;;;;;4970431;28;20452;-71
2022/11/04 09:11:06;;;;;;;7.73;3.40;;;10.50;99.90;;;;;;4956577;29;20424;-70
2022/11/04 09:13:32;;;;;;;2.57;1.80;;;10.40;99.90;;;;;;4964612;28;20456;-70
2022/11/04 09:15:57;;;;;;;5.30;2.87;;;10.40;99.90;;;;;;4975120;28;20451;-72
2022/11/04 09:18:23;;;;;;;8.40;3.83;;;10.40;99.90;;;;;;4975599;28;20176;-70
2022/11/04 09:20:48;;;;;;;6.23;2.70;;;10.50;99.90;;;;;;4974893;28;20211;-70
2022/11/04 09:23:14;;;;;;;3.60;2.00;;;10.60;99.90;;;;;;4975590;28;20192;-71
2022/11/04 09:25:39;;;;;;;2.60;1.70;;;10.70;99.90;;;;;;4973928;28;20180;-70
2022/11/04 09:28:05;;;;;;;1.50;1.37;;;10.60;99.90;;;;;;4967407;28;20223;-70
2022/11/04 09:30:31;;;;;;;1.83;1.73;;;10.70;99.90;;;;;;4975261;28;20191;-71
2022/11/04 09:32:57;;;;;;;2.40;1.90;;;10.70;99.90;;;;;;4960150;28;20224;-72
2022/11/04 09:35:23;;;;;;;2.23;1.67;;;10.70;99.90;;;;;;4956223;28;20796;-69
2022/11/04 09:37:49;;;;;;;4.20;1.77;;;10.70;99.90;;;;;;4956933;28;20427;-70
2022/11/04 09:40:17;;;;;;;2.13;1.50;;;10.80;99.90;;;;;;4974466;28;20195;-70
2022/11/04 09:43:13;;;;;;;2.07;1.40;;;11.00;99.90;;;;;;4975080;28;20459;-70
2022/11/04 09:45:41;;;;;;;3.17;1.80;;;11.00;99.90;;;;;;4965349;28;20449;-70
2022/11/04 09:48:25;;;;;;;1.50;1.40;;;11.10;99.90;;;;;;4975016;28;20443;-70
2022/11/04 09:50:56;;;;;;;3.60;1.80;;;11.30;99.90;;;;;;4974264;28;20507;-69
2022/11/04 09:53:38;;;;;;;2.40;1.53;;;11.50;99.90;;;;;;4966612;28;20534;-69
2022/11/04 09:56:26;;;;;;;2.73;1.80;;;11.40;99.90;;;;;;4975010;28;20411;-69
2022/11/04 09:58:52;;;;;;;2.80;1.73;;;11.60;99.90;;;;;;4974343;28;20431;-70
2022/11/04 10:01:18;;;;;;;2.87;1.50;;;11.90;99.90;;;;;;4956409;28;20456;-69
2022/11/04 10:04:00;;;;;;;2.23;1.90;;;12.50;99.90;;;;;;4955721;29;20266;-70
2022/11/04 10:06:29;;;;;;;2.50;2.30;;;12.80;99.90;;;;;;4963994;28;20259;-70
2022/11/04 10:09:13;;;;;;;3.20;2.40;;;13.20;99.90;;;;;;4955287;28;20809;-69
2022/11/04 10:11:53;;;;;;;2.80;1.80;;;13.30;99.90;;;;;;4959815;28;20944;-69
2022/11/04 10:14:51;;;;;;;2.50;1.70;;;13.60;99.90;;;;;;4956983;28;20432;-70
2022/11/04 10:17:43;;;;;;;1.87;1.77;;;14.10;99.90;;;;;;4957320;28;20419;-70
2022/11/04 10:20:44;;;;;;;2.97;2.13;;;14.10;99.90;;;;;;4973576;28;20462;-71
2022/11/04 10:23:24;;;;;;;5.37;2.83;;;13.90;99.90;;;;;;4974113;28;20482;-69
2022/11/04 10:26:23;;;;;;;7.10;4.43;;;14.30;99.90;;;;;;4974056;28;20480;-69
2022/11/04 10:29:14;;;;;;;3.47;2.80;;;14.90;99.90;;;;;;4973656;28;20416;-69
2022/11/04 10:31:43;;;;;;;2.33;1.77;;;15.90;99.90;;;;;;4973762;28;20448;-69
2022/11/04 10:34:43;;;;;;;5.40;2.43;;;14.90;99.90;;;;;;4974253;28;20455;-70
2022/11/04 10:37:11;;;;;;;2.70;2.10;;;14.00;99.90;;;;;;4961845;28;20435;-71
2022/11/04 10:39:44;;;;;;;2.80;2.13;;;13.60;99.90;;;;;;4954513;29;20424;-70
2022/11/04 10:42:15;;;;;;;2.20;1.80;;;13.30;99.90;;;;;;4962831;28;20478;-69
2022/11/04 10:44:42;;;;;;;3.00;2.10;;;13.50;99.90;;;;;;4971986;28;20890;-69
2022/11/04 10:47:32;;;;;;;5.03;1.93;;;13.80;99.90;;;;;;4971723;28;20928;-70
2022/11/04 10:50:31;;;;;;;2.83;1.90;;;13.90;99.90;;;;;;4969494;28;20920;-71
2022/11/04 10:53:24;;;;;;;2.20;1.07;;;13.80;99.90;;;;;;4973027;28;20535;-70
2022/11/04 10:56:01;;;;;;;3.53;2.00;;;13.60;99.90;;;;;;4973602;28;20431;-69
2022/11/04 10:58:38;;;;;;;2.43;1.70;;;13.30;99.90;;;;;;4973597;28;20423;-69
2022/11/04 11:01:22;;;;;;;5.20;2.03;;;13.30;99.90;;;;;;4972942;28;20458;-69
2022/11/04 11:03:48;;;;;;;2.70;1.20;;;13.20;99.90;;;;;;4973655;28;20412;-69
2022/11/04 11:06:24;;;;;;;4.07;1.33;;;13.00;99.90;;;;;;4974750;28;20435;-69
2022/11/04 11:08:51;;;;;;;2.33;1.40;;;12.60;99.90;;;;;;4973293;28;20271;-70
2022/11/04 11:11:39;;;;;;;3.77;1.73;;;12.40;99.90;;;;;;4973572;28;20427;-68
2022/11/04 11:14:34;;;;;;;3.67;1.93;;;12.30;99.90;;;;;;4963842;28;20428;-69
2022/11/04 11:17:33;;;;;;;3.33;1.40;;;12.30;99.90;;;;;;4954151;29;20458;-68
2022/11/04 11:20:07;;;;;;;2.50;1.30;;;12.50;99.90;;;;;;4969979;28;20945;-68
2022/11/04 11:22:42;;;;;;;1.80;1.20;;;12.50;99.90;;;;;;4973128;28;20463;-70
2022/11/04 11:25:12;;;;;;;2.00;1.80;;;12.50;99.90;;;;;;4972570;28;20878;-69
2022/11/04 11:27:38;;;;;;;3.27;2.00;;;12.70;99.90;;;;;;4973168;28;20482;-69
2022/11/04 11:30:04;;;;;;;4.57;1.63;;;12.80;99.90;;;;;;4972049;28;20428;-69
2022/11/04 11:32:34;;;;;;;1.80;1.50;;;12.80;99.90;;;;;;4973175;28;20439;-69
2022/11/04 11:35:01;;;;;;;3.60;1.90;;;12.90;99.90;;;;;;4972837;28;20516;-69
2022/11/04 11:37:29;;;;;;;3.97;2.33;;;12.90;99.90;;;;;;4956101;28;20922;-69
2022/11/04 11:39:56;;;;;;;2.83;1.93;;;12.90;99.90;;;;;;4953667;28;20431;-71
2022/11/04 11:42:23;;;;;;;3.80;1.77;;;13.00;99.90;;;;;;4962438;28;20615;-68
2022/11/04 11:44:51;;;;;;;2.53;1.40;;;13.20;99.90;;;;;;4954040;29;20423;-69
2022/11/04 11:47:29;;;;;;;4.03;2.10;;;13.30;99.90;;;;;;4966405;28;20953;-70
2022/11/04 11:50:12;;;;;;;3.97;1.73;;;13.40;99.90;;;;;;4971689;28;20442;-69
2022/11/04 11:52:43;;;;;;;3.07;1.97;;;13.70;99.90;;;;;;4968300;28;20455;-68
2022/11/04 11:55:34;;;;;;;2.27;1.30;;;13.90;99.90;;;;;;4973127;28;20570;-68
2022/11/04 11:58:33;;;;;;;3.87;1.60;;;14.50;99.90;;;;;;4963134;28;20800;-68
2022/11/04 12:01:00;;;;;;;6.27;1.70;;;14.50;99.90;;;;;;4973123;28;20459;-69
2022/11/04 12:03:42;;;;;;;6.30;2.87;;;14.60;99.90;;;;;;4976785;28;20435;-70
2022/11/04 12:06:30;;;;;;;2.43;1.90;;;14.80;99.90;;;;;;4973979;28;20496;-71
2022/11/04 12:09:34;;;;;;;9.00;1.40;;;15.00;99.90;;;;;;4976733;28;20905;-69
2022/11/04 12:12:21;;;;;;;2.77;1.33;;;14.70;99.90;;;;;;4971408;28;20456;-72
2022/11/04 12:15:24;;;;;;;2.67;1.40;;;14.60;99.90;;;;;;4957494;29;20432;-67
2022/11/04 12:18:08;;;;;;;4.33;2.30;;;14.10;99.90;;;;;;4957165;28;20482;-68
2022/11/04 12:20:48;;;;;;;2.33;1.50;;;13.80;99.90;;;;;;4966809;28;20801;-68
2022/11/04 12:23:33;;;;;;;7.53;1.67;;;13.60;99.90;;;;;;4965899;28;20502;-67
2022/11/04 12:26:31;;;;;;;4.20;1.63;;;13.50;99.90;;;;;;4959604;28;20436;-67
2022/11/04 12:29:28;;;;;;;3.87;1.90;;;13.40;99.90;;;;;;4959951;28;20435;-68
2022/11/04 12:32:14;;;;;;;3.53;1.70;;;13.30;99.90;;;;;;4990496;28;20504;-67
2022/11/04 12:35:10;;;;;;;5.43;1.43;;;13.20;99.90;;;;;;4976501;28;20419;-68
2022/11/04 12:37:58;;;;;;;4.23;2.00;;;13.30;99.90;;;;;;4966307;28;20431;-70
2022/11/04 12:40:51;;;;;;;4.63;1.77;;;13.50;99.90;;;;;;4976074;28;20446;-68
2022/11/04 12:43:43;;;;;;;2.60;1.70;;;13.40;99.90;;;;;;4975382;28;20462;-66
2022/11/04 12:46:27;;;;;;;3.13;1.60;;;13.20;99.90;;;;;;4976277;28;20487;-66
2022/11/04 12:49:08;;;;;;;4.57;1.97;;;13.20;99.90;;;;;;4966003;28;20798;-70
2022/11/04 12:51:43;;;;;;;8.10;4.53;;;13.20;99.90;;;;;;4976116;28;20443;-67
2022/11/04 12:54:41;;;;;;;4.97;2.57;;;13.40;99.90;;;;;;4975456;28;20430;-70
2022/11/04 12:57:15;;;;;;;3.50;1.87;;;13.60;99.90;;;;;;4956771;29;20463;-67
2022/11/04 13:00:09;;;;;;;2.60;2.03;;;13.80;99.90;;;;;;4970865;28;20431;-71
2022/11/04 13:02:47;;;;;;;4.43;1.70;;;14.10;99.90;;;;;;4967564;28;20523;-67
2022/11/04 13:05:38;;;;;;;3.33;1.37;;;14.50;99.90;;;;;;4975969;28;21173;-67
2022/11/04 13:08:30;;;;;;;5.43;1.80;;;14.80;99.90;;;;;;4973511;28;20429;-67
2022/11/04 13:11:21;;;;;;;3.80;1.57;;;14.80;99.90;;;;;;4956007;28;20956;-68
2022/11/04 13:13:55;;;;;;;3.10;1.50;;;14.70;99.90;;;;;;4956214;28;20432;-67
2022/11/04 13:16:21;;;;;;;9.03;5.07;;;14.80;99.90;;;;;;4964849;28;20431;-67
2022/11/04 13:18:48;;;;;;;3.17;2.00;;;15.10;99.90;;;;;;4956061;28;20430;-68
2022/11/04 13:21:19;;;;;;;10.30;2.07;;;15.00;99.90;;;;;;4968182;28;20200;-68
2022/11/04 13:23:49;;;;;;;2.90;2.03;;;14.60;99.90;;;;;;4975593;28;20886;-67
2022/11/04 13:26:16;;;;;;;8.53;3.00;;;14.50;99.90;;;;;;4974931;28;20494;-66
2022/11/04 13:28:44;;;;;;;4.47;1.90;;;14.40;99.90;;;;;;4963261;28;20927;-68
2022/11/04 13:31:33;;;;;;;3.43;1.90;;;14.50;99.90;;;;;;4975358;28;20911;-68
2022/11/04 13:34:23;;;;;;;2.67;1.87;;;14.60;99.90;;;;;;4955860;28;20440;-67
2022/11/04 13:37:07;;;;;;;3.27;1.00;;;14.50;99.90;;;;;;4956072;28;20508;-67
2022/11/04 13:39:45;;;;;;;1.40;1.03;;;14.10;99.90;;;;;;4955316;28;20938;-69
2022/11/04 13:42:47;;;;;;;1.20;0.93;;;13.20;99.90;;;;;;4955927;28;20847;-67
2022/11/04 13:45:16;;;;;;;2.00;1.10;;;12.50;99.90;;;;;;4962978;28;20438;-68
2022/11/04 13:47:55;;;;;;;2.23;1.10;;;11.70;99.90;;;;;;4956799;28;20487;-69
2022/11/04 13:50:30;;;;;;;2.67;1.50;;;11.00;99.90;;;;;;4962296;28;20438;-66